Tupper Lake, NY

8:27 AM EST on February 28, 2015 (GMT -0500)
Adirondack Regional | Change Station
CLOSE
Current Station
Airport
Location: Saranac Lake,
Elevation: 1660 ft
Nearby Weather Stations

Elev 1660 ft 44.39 °N, 74.21 °W | Updated 24 minutes ago

Partly Cloudy
Partly Cloudy
0 °F
Feels Like -12 °F
N
6
Wind Variable Wind from SW

Today
High -- | Low -- °F
--% Chance of Precip.
Yesterday
High -- | Low -- °F
Precip. -- in
6:36 AM 5:44 PM
Waxing Gibbous, 77% visible
Pressure 30.58 in
Visibility 10.0 miles
Clouds Mostly Cloudy 1800 ft
Windchill -12 °F
Dew Point -3 °F
Humidity 88%
Rainfall 0.00 in
Snow Depth Not available.
UV 0 out of 12
Pollen .40 out of 12
Air Quality Not available.
Flu Activity Not available.
SPECI KSLK 281303Z AUTO 23005KT 10SM BKN018 M18/M19 A3058 RMK AO2 T11781194 $

More Conditions Fewer Conditions

Pressure 30.58 in
Visibility 10.0 miles
Clouds Mostly Cloudy 1800 ft
Windchill -12 °F
Dew Point -3 °F
Humidity 88%
Rainfall 0.00 in
Snow Depth Not available.
UV 0 out of 12
Pollen .40 out of 12
Air Quality Not available.
Flu Activity Not available.
SPECI KSLK 281303Z AUTO 23005KT 10SM BKN018 M18/M19 A3058 RMK AO2 T11781194 $

More Conditions Fewer Conditions

10-Day Weather Forecast

Almanac

Astronomy

Feb. 28, 2015 Rise Set
Actual Time
Civil Twilight
Nautical Twilight
Astronomical Twilight
Moon
Length of Visible Light
Length of Day
Tomorrow will be .
, % of the Moon is Illuminated

Today's Extremes

State Highs State Lows

Community

WunderPhotos

Upload Photos

1,801,010 photos uploaded!

WunderBlogs® & News

Nearby

Air Quality

  Air Quality AQ Index Pollutant
Not available.

Snow Depth

Station Depth Elevation

Earthquake Activity

City Distance Mag. Time & Date
Minimum magnitude displayed is 2.5.

Coastal Water Temperatures

Place Temperature

Nearby Weather Stations